createdAt,value
2022-10-14T00:01:25.506Z,101876.11
2022-10-14T00:03:54.026Z,101872.91
2022-10-14T00:06:25.230Z,101873.40
2022-10-14T00:08:53.328Z,101872.61
2022-10-14T00:11:27.739Z,101871.01
2022-10-14T00:14:00.484Z,101863.65
2022-10-14T00:16:31.987Z,101869.11
2022-10-14T00:18:59.822Z,101870.42
2022-10-14T00:21:28.641Z,101858.09
2022-10-14T00:23:57.091Z,101860.97
2022-10-14T00:26:26.088Z,101858.09
2022-10-14T00:28:54.108Z,101867.84
2022-10-14T00:31:22.271Z,101867.55
2022-10-14T00:33:50.486Z,101866.73
2022-10-14T00:36:21.176Z,101870.09
2022-10-14T00:38:49.619Z,101862.24
2022-10-14T00:41:27.761Z,101864.66
2022-10-14T00:44:14.210Z,101860.19
2022-10-14T00:46:52.012Z,101856.49
2022-10-14T00:49:22.193Z,101853.61
2022-10-14T00:52:05.353Z,101858.59
2022-10-14T00:54:36.382Z,101867.22
2022-10-14T00:57:05.045Z,101862.45
2022-10-14T00:59:34.546Z,101870.59
2022-10-14T01:02:02.234Z,101865.62
2022-10-14T01:04:30.103Z,101860.38
2022-10-14T01:07:32.940Z,101861.66
2022-10-14T01:10:19.051Z,101864.05
2022-10-14T01:13:05.244Z,101865.62
2022-10-14T01:15:42.128Z,101867.22
2022-10-14T01:18:55.404Z,101859.86
2022-10-14T01:21:37.361Z,101860.68
2022-10-14T01:24:06.594Z,101853.32
2022-10-14T01:27:11.729Z,101850.44
2022-10-14T01:29:58.832Z,101836.55
2022-10-14T01:32:29.475Z,101843.57
2022-10-14T01:35:03.002Z,101842.01
2022-10-14T01:37:32.071Z,101845.86
2022-10-14T01:40:05.214Z,101837.72
2022-10-14T01:42:36.173Z,101845.86
2022-10-14T01:45:13.202Z,101841.38
2022-10-14T01:47:41.980Z,101835.62
2022-10-14T01:50:14.620Z,101838.18
2022-10-14T01:52:51.433Z,101833.44
2022-10-14T01:55:25.857Z,101832.00
2022-10-14T01:57:57.591Z,101823.89
2022-10-14T02:00:25.680Z,101827.26
2022-10-14T02:02:53.508Z,101830.92
2022-10-14T02:05:29.657Z,101823.89
2022-10-14T02:08:12.003Z,101825.49
2022-10-14T02:11:02.729Z,101824.67
2022-10-14T02:13:38.053Z,101813.16
2022-10-14T02:16:38.491Z,101824.67
2022-10-14T02:19:30.929Z,101821.30
2022-10-14T02:22:25.652Z,101815.38
2022-10-14T02:25:01.562Z,101813.98
2022-10-14T02:27:30.517Z,101814.73
2022-10-14T02:30:00.578Z,101811.40
2022-10-14T02:32:29.401Z,101808.52
2022-10-14T02:35:00.502Z,101806.91
2022-10-14T02:37:30.786Z,101817.45
2022-10-14T02:40:09.920Z,101813.26
2022-10-14T02:42:37.589Z,101811.85
2022-10-14T02:45:06.340Z,101813.98
2022-10-14T02:47:33.981Z,101813.16
2022-10-14T02:50:01.596Z,101804.53
2022-10-14T02:52:29.256Z,101797.17
2022-10-14T02:54:56.893Z,101782.78
2022-10-14T02:57:24.622Z,101785.95
2022-10-14T02:59:52.513Z,101791.55
2022-10-14T03:02:20.447Z,101783.21
2022-10-14T03:04:48.380Z,101770.91
2022-10-14T03:07:16.077Z,101774.28
2022-10-14T03:09:43.730Z,101771.11
2022-10-14T03:12:11.372Z,101778.14
2022-10-14T03:14:38.992Z,101777.84
2022-10-14T03:17:06.650Z,101768.10
2022-10-14T03:19:34.483Z,101766.53
2022-10-14T03:22:02.088Z,101758.85
2022-10-14T03:24:29.726Z,101759.37
2022-10-14T03:26:57.404Z,101764.31
2022-10-14T03:29:25.310Z,101765.29
2022-10-14T03:31:52.901Z,101770.23
2022-10-14T03:34:20.529Z,101776.51
2022-10-14T03:36:48.182Z,101767.05
2022-10-14T03:39:15.822Z,101760.84
2022-10-14T03:41:43.524Z,101758.75
2022-10-14T03:44:12.426Z,101750.12
2022-10-14T03:46:40.112Z,101752.99
2022-10-14T03:49:07.797Z,101750.90
2022-10-14T03:51:35.482Z,101741.29
2022-10-14T03:54:03.073Z,101743.67
2022-10-14T03:56:30.765Z,101732.16
2022-10-14T03:58:58.449Z,101729.58
2022-10-14T04:01:26.310Z,101724.64
2022-10-14T04:03:54.887Z,101723.83
2022-10-14T04:06:22.535Z,101725.43
2022-10-14T04:08:50.216Z,101722.06
2022-10-14T04:11:18.456Z,101724.41
2022-10-14T04:13:46.581Z,101717.09
2022-10-14T04:16:14.183Z,101724.12
2022-10-14T04:18:41.833Z,101719.18
2022-10-14T04:21:13.722Z,101722.84
2022-10-14T04:23:41.440Z,101718.20
2022-10-14T04:26:10.962Z,101711.66
2022-10-14T04:28:39.302Z,101718.49
2022-10-14T04:31:07.397Z,101715.62
2022-10-14T04:33:36.133Z,101712.45
2022-10-14T04:36:07.100Z,101713.23
2022-10-14T04:38:34.830Z,101709.57
2022-10-14T04:41:02.489Z,101705.09
2022-10-14T04:43:30.085Z,101703.03
2022-10-14T04:45:57.738Z,101704.11
2022-10-14T04:48:25.367Z,101694.69
2022-10-14T04:50:54.423Z,101697.57
2022-10-14T04:53:22.622Z,101687.63
2022-10-14T04:55:50.730Z,101683.18
2022-10-14T04:58:18.674Z,101684.45
2022-10-14T05:00:46.281Z,101681.58
2022-10-14T05:03:13.942Z,101670.55
2022-10-14T05:05:41.579Z,101673.44
2022-10-14T05:08:09.200Z,101669.74
2022-10-14T05:10:37.180Z,101672.16
2022-10-14T05:13:04.827Z,101653.78
2022-10-14T05:15:32.931Z,101658.23
2022-10-14T05:18:00.591Z,101656.98
2022-10-14T05:20:28.336Z,101651.23
2022-10-14T05:22:55.950Z,101648.35
2022-10-14T05:25:23.572Z,101654.41
2022-10-14T05:27:51.237Z,101651.52
2022-10-14T05:30:18.999Z,101648.65
2022-10-14T05:32:46.587Z,101651.52
2022-10-14T05:35:14.317Z,101644.17
2022-10-14T05:37:42.497Z,101642.60
2022-10-14T05:40:11.482Z,101636.32
2022-10-14T05:42:39.226Z,101638.41
2022-10-14T05:45:08.013Z,101641.29
2022-10-14T05:47:35.642Z,101638.71
2022-10-14T05:50:04.566Z,101634.26
2022-10-14T05:52:34.426Z,101634.26
2022-10-14T05:55:02.193Z,101632.13
2022-10-14T05:57:29.884Z,101631.68
2022-10-14T05:59:57.860Z,101618.86
2022-10-14T06:02:25.556Z,101615.49
2022-10-14T06:04:53.746Z,101611.34
2022-10-14T06:07:21.393Z,101612.91
2022-10-14T06:09:49.297Z,101621.34
2022-10-14T06:12:16.885Z,101622.42
2022-10-14T06:14:44.503Z,101616.18
2022-10-14T06:17:12.170Z,101625.40
2022-10-14T06:19:39.748Z,101627.30
2022-10-14T06:22:07.486Z,101619.74
2022-10-14T06:24:35.104Z,101611.30
2022-10-14T06:27:02.740Z,101619.91
2022-10-14T06:29:38.667Z,101628.08
2022-10-14T06:32:07.959Z,101620.30
2022-10-14T06:34:35.886Z,101617.48
2022-10-14T06:37:03.641Z,101614.90
2022-10-14T06:39:31.291Z,101618.27
2022-10-14T06:41:58.966Z,101614.09
2022-10-14T06:44:26.613Z,101618.27
2022-10-14T06:46:54.220Z,101617.48
2022-10-14T06:49:21.913Z,101625.82
2022-10-14T06:51:49.608Z,101624.22
2022-10-14T06:54:18.199Z,101623.66
2022-10-14T06:56:45.869Z,101625.98
2022-10-14T06:59:13.500Z,101625.10
2022-10-14T07:01:41.284Z,101622.69
2022-10-14T07:04:08.979Z,101628.47
2022-10-14T07:06:38.330Z,101625.30
2022-10-14T07:09:06.505Z,101629.48
2022-10-14T07:11:34.154Z,101627.88
2022-10-14T07:14:01.835Z,101632.07
2022-10-14T07:16:29.785Z,101637.83
2022-10-14T07:18:57.597Z,101639.91
2022-10-14T07:21:25.335Z,101638.61
2022-10-14T07:23:53.129Z,101637.30
2022-10-14T07:26:20.811Z,101630.27
2022-10-14T07:28:48.673Z,101637.30
2022-10-14T07:31:16.455Z,101637.63
2022-10-14T07:33:44.453Z,101636.06
2022-10-14T07:36:17.217Z,101630.27
2022-10-14T07:38:49.258Z,101638.41
2022-10-14T07:41:20.894Z,101630.86
2022-10-14T07:43:50.979Z,101631.16
2022-10-14T07:46:30.494Z,101635.41
2022-10-14T07:48:58.688Z,101641.45
2022-10-14T07:51:28.552Z,101640.48
2022-10-14T07:53:57.859Z,101645.22
2022-10-14T07:56:25.565Z,101653.65
2022-10-14T07:58:53.855Z,101644.01
2022-10-14T08:01:21.733Z,101649.37
2022-10-14T08:03:49.741Z,101646.55
2022-10-14T08:06:17.710Z,101648.65
2022-10-14T08:08:46.467Z,101649.66
2022-10-14T08:11:19.323Z,101651.82
2022-10-14T08:13:47.870Z,101657.58
2022-10-14T08:16:15.425Z,101653.62
2022-10-14T08:18:43.694Z,101651.52
2022-10-14T08:21:11.441Z,101650.55
2022-10-14T08:23:39.206Z,101637.10
2022-10-14T08:26:20.356Z,101647.05
2022-10-14T08:28:49.242Z,101645.28
2022-10-14T08:31:17.706Z,101646.03
2022-10-14T08:33:46.083Z,101644.98
2022-10-14T08:36:14.244Z,101651.52
2022-10-14T08:38:42.890Z,101657.09
2022-10-14T08:41:13.466Z,101656.30
2022-10-14T08:43:51.851Z,101648.16
2022-10-14T08:46:27.748Z,101634.81
2022-10-14T08:49:29.384Z,101641.65
2022-10-14T08:52:21.369Z,101649.30
2022-10-14T08:54:56.686Z,101652.96
2022-10-14T08:57:29.488Z,101649.23
2022-10-14T08:59:57.231Z,101653.72
2022-10-14T09:02:24.970Z,101658.16
2022-10-14T09:04:52.633Z,101660.52
2022-10-14T09:07:21.265Z,101678.44
2022-10-14T09:09:54.334Z,101687.37
2022-10-14T09:12:27.294Z,101684.48
2022-10-14T09:15:42.380Z,101684.00
2022-10-14T09:18:33.511Z,101683.54
2022-10-14T09:21:03.109Z,101690.18
2022-10-14T09:23:30.776Z,101684.42
2022-10-14T09:26:12.691Z,101691.29
2022-10-14T09:28:42.962Z,101688.67
2022-10-14T09:31:14.645Z,101691.55
2022-10-14T09:33:44.026Z,101686.48
2022-10-14T09:36:20.601Z,101686.48
2022-10-14T09:38:53.576Z,101684.91
2022-10-14T09:41:31.424Z,101682.23
2022-10-14T09:44:22.334Z,101688.54
2022-10-14T09:47:07.074Z,101681.61
2022-10-14T09:49:48.545Z,101677.85
2022-10-14T09:52:24.544Z,101675.20
2022-10-14T09:54:57.467Z,101679.26
2022-10-14T09:57:26.065Z,101677.88
2022-10-14T10:00:02.962Z,101678.38
2022-10-14T10:02:47.993Z,101675.13
2022-10-14T10:05:42.830Z,101674.32
2022-10-14T10:08:20.157Z,101664.57
2022-10-14T10:11:06.511Z,101667.71
2022-10-14T10:13:47.267Z,101656.07
2022-10-14T10:16:22.794Z,101656.30
2022-10-14T10:18:52.420Z,101653.03
2022-10-14T10:21:25.984Z,101645.09
2022-10-14T10:24:02.097Z,101636.95
2022-10-14T10:26:33.049Z,101634.59
2022-10-14T10:29:06.452Z,101636.35
2022-10-14T10:32:04.315Z,101637.66
2022-10-14T10:34:43.981Z,101636.84
2022-10-14T10:37:27.308Z,101626.94
2022-10-14T10:40:39.838Z,101623.05
2022-10-14T10:43:32.861Z,101633.87
2022-10-14T10:46:20.775Z,101619.80
2022-10-14T10:48:58.815Z,101608.69
2022-10-14T10:51:42.036Z,101611.63
2022-10-14T10:54:21.176Z,101612.29
2022-10-14T10:56:57.208Z,101602.45
2022-10-14T10:59:48.345Z,101608.07
2022-10-14T11:02:45.968Z,101609.51
2022-10-14T11:05:23.176Z,101606.47
2022-10-14T11:08:17.884Z,101596.85
2022-10-14T11:11:17.734Z,101596.72
2022-10-14T11:14:14.375Z,101596.55
2022-10-14T11:17:04.469Z,101598.26
2022-10-14T11:19:45.182Z,101587.80
2022-10-14T11:22:29.834Z,101580.20
2022-10-14T11:25:18.433Z,101579.95
2022-10-14T11:28:08.463Z,101575.50
2022-10-14T11:30:45.287Z,101571.02
2022-10-14T11:33:21.684Z,101572.16
2022-10-14T11:36:10.823Z,101580.08
2022-10-14T11:38:49.361Z,101577.52
2022-10-14T11:41:50.281Z,101574.16
2022-10-14T11:44:41.015Z,101561.05
2022-10-14T11:47:20.473Z,101557.45
2022-10-14T11:52:55.343Z,101551.98
2022-10-14T11:55:30.203Z,101555.45
2022-10-14T11:58:02.387Z,101554.70
2022-10-14T12:00:53.485Z,101553.39
2022-10-14T12:03:39.925Z,101551.79
2022-10-14T12:06:36.753Z,101546.27
2022-10-14T12:09:12.531Z,101550.68
2022-10-14T12:11:52.705Z,101545.16
2022-10-14T12:14:36.003Z,101537.20
2022-10-14T12:17:14.779Z,101537.70
2022-10-14T12:19:46.401Z,101548.69
2022-10-14T12:22:29.356Z,101538.68
2022-10-14T12:25:04.465Z,101536.26
2022-10-14T12:27:33.357Z,101522.82
2022-10-14T12:30:01.418Z,101522.49
2022-10-14T12:32:34.234Z,101522.95
2022-10-14T12:35:03.229Z,101521.54
2022-10-14T12:37:39.820Z,101517.29
2022-10-14T12:40:13.995Z,101511.96
2022-10-14T12:43:04.132Z,101508.27
2022-10-14T12:45:35.280Z,101514.25
2022-10-14T12:48:04.986Z,101508.98
2022-10-14T12:50:37.990Z,101510.82
2022-10-14T12:53:22.895Z,101507.13
2022-10-14T12:55:57.299Z,101505.03
2022-10-14T12:58:42.162Z,101501.63
2022-10-14T13:01:22.556Z,101497.97
2022-10-14T13:04:00.077Z,101482.73
2022-10-14T13:06:36.591Z,101486.91
2022-10-14T13:09:13.262Z,101474.95
2022-10-14T13:11:42.661Z,101477.30
2022-10-14T13:14:32.200Z,101462.16
2022-10-14T13:17:01.790Z,101460.39
2022-10-14T13:19:35.422Z,101454.67
2022-10-14T13:22:06.816Z,101457.05
2022-10-14T13:24:40.311Z,101463.63
2022-10-14T13:27:12.241Z,101454.48
2022-10-14T13:30:05.997Z,101465.23
2022-10-14T13:32:49.462Z,101463.63
2022-10-14T13:35:34.910Z,101466.02
2022-10-14T13:38:15.784Z,101456.05
2022-10-14T13:40:53.195Z,101453.73
2022-10-14T13:43:32.882Z,101455.06
2022-10-14T13:46:08.346Z,101456.38
2022-10-14T13:48:45.011Z,101458.98
2022-10-14T13:51:37.845Z,101456.05
2022-10-14T13:54:26.303Z,101455.49
2022-10-14T13:58:07.333Z,101455.45
2022-10-14T14:00:40.547Z,101450.95
2022-10-14T14:03:35.252Z,101455.36
2022-10-14T14:06:11.446Z,101455.85
2022-10-14T14:08:57.828Z,101454.80
2022-10-14T14:11:32.670Z,101455.03
2022-10-14T14:14:18.059Z,101448.46
2022-10-14T14:17:06.306Z,101444.21
2022-10-14T14:19:39.008Z,101454.18
2022-10-14T14:22:20.507Z,101451.30
2022-10-14T14:24:49.592Z,101463.11
2022-10-14T14:27:23.141Z,101463.40
2022-10-14T14:29:53.356Z,101456.34
2022-10-14T14:32:24.434Z,101465.27
2022-10-14T14:40:25.842Z,101469.23
2022-10-14T14:42:56.283Z,101466.34
2022-10-14T14:45:27.018Z,101470.01
2022-10-14T14:47:57.503Z,101473.70
2022-10-14T14:50:34.241Z,101467.39
2022-10-14T14:53:15.123Z,101455.06
2022-10-14T14:55:54.774Z,101459.05
2022-10-14T14:58:25.650Z,101456.44
2022-10-14T15:00:56.014Z,101451.95
2022-10-14T15:03:29.408Z,101454.61
2022-10-14T15:06:00.985Z,101439.89
2022-10-14T15:08:32.226Z,101453.82
2022-10-14T15:11:01.313Z,101440.19
2022-10-14T15:13:40.837Z,101456.96
2022-10-14T15:16:08.979Z,101449.63
2022-10-14T15:18:38.787Z,101448.33
2022-10-14T15:21:06.384Z,101449.11
2022-10-14T15:23:53.849Z,101444.44
2022-10-14T15:26:37.827Z,101443.13
2022-10-14T15:29:06.595Z,101432.89
2022-10-14T15:31:35.597Z,101440.52
2022-10-14T15:34:04.010Z,101440.77
2022-10-14T15:36:35.797Z,101446.56
2022-10-14T15:39:03.850Z,101444.99
2022-10-14T15:41:31.692Z,101448.13
2022-10-14T15:43:59.290Z,101455.49
2022-10-14T15:46:45.143Z,101455.49
2022-10-14T15:49:20.588Z,101456.30
2022-10-14T15:51:48.759Z,101460.27
2022-10-14T15:54:17.524Z,101453.16
2022-10-14T15:56:45.208Z,101453.95
2022-10-14T15:59:13.275Z,101452.88
2022-10-14T16:01:42.391Z,101449.70
2022-10-14T16:04:17.998Z,101447.64
2022-10-14T16:06:45.657Z,101441.59
2022-10-14T16:09:13.420Z,101445.74
2022-10-14T16:11:41.077Z,101443.39
2022-10-14T16:14:11.128Z,101439.70
2022-10-14T16:16:42.971Z,101447.58
2022-10-14T16:19:11.029Z,101447.80
2022-10-14T16:21:40.143Z,101445.71
2022-10-14T16:24:09.286Z,101445.45
2022-10-14T16:26:38.164Z,101435.73
2022-10-14T16:29:05.935Z,101436.23
2022-10-14T16:31:33.694Z,101436.46
2022-10-14T16:34:02.884Z,101443.81
2022-10-14T16:36:31.029Z,101444.30
2022-10-14T16:38:58.761Z,101448.49
2022-10-14T16:41:26.701Z,101438.81
2022-10-14T16:43:54.315Z,101436.42
2022-10-14T16:46:41.922Z,101431.95
2022-10-14T16:49:09.712Z,101433.52
2022-10-14T16:51:37.297Z,101430.37
2022-10-14T16:54:05.267Z,101422.49
2022-10-14T16:56:51.542Z,101428.25
2022-10-14T16:59:19.891Z,101417.27
2022-10-14T17:01:48.050Z,101421.45
2022-10-14T17:04:16.229Z,101414.88
2022-10-14T17:06:43.927Z,101416.18
2022-10-14T17:09:11.582Z,101415.37
2022-10-14T17:11:40.087Z,101411.70
2022-10-14T17:14:07.847Z,101416.94
2022-10-14T17:16:35.897Z,101415.89
2022-10-14T17:19:03.533Z,101415.10
2022-10-14T17:21:31.209Z,101422.46
2022-10-14T17:24:03.211Z,101425.86
2022-10-14T17:26:33.247Z,101422.98
2022-10-14T17:29:01.240Z,101429.79
2022-10-14T17:31:30.086Z,101426.91
2022-10-14T17:33:59.659Z,101421.68
2022-10-14T17:36:29.479Z,101422.46
2022-10-14T17:38:58.418Z,101416.67
2022-10-14T17:41:27.883Z,101412.23
2022-10-14T17:43:57.346Z,101414.32
2022-10-14T17:46:26.673Z,101417.72
2022-10-14T17:48:59.800Z,101411.15
2022-10-14T17:51:29.070Z,101412.75
2022-10-14T17:53:59.431Z,101401.70
2022-10-14T17:56:28.898Z,101403.30
2022-10-14T17:58:58.598Z,101397.25
2022-10-14T18:01:37.281Z,101388.32
2022-10-14T18:04:15.079Z,101380.67
2022-10-14T18:06:45.238Z,101390.61
2022-10-14T18:09:13.583Z,101389.34
2022-10-14T18:14:31.902Z,101372.79
2022-10-14T18:17:00.349Z,101379.04
2022-10-14T18:19:28.546Z,101380.34
2022-10-14T18:21:56.220Z,101377.95
2022-10-14T18:24:24.470Z,101375.60
2022-10-14T18:26:52.986Z,101364.59
2022-10-14T18:29:20.614Z,101371.38
2022-10-14T18:34:25.931Z,101370.08
2022-10-14T18:36:53.524Z,101365.89
2022-10-14T18:39:21.604Z,101372.46
2022-10-14T18:41:49.650Z,101363.50
2022-10-14T18:44:17.381Z,101367.20
2022-10-14T18:46:45.041Z,101366.38
2022-10-14T18:49:13.177Z,101369.00
2022-10-14T18:51:42.093Z,101366.88
2022-10-14T18:54:14.763Z,101359.71
2022-10-14T18:56:42.709Z,101368.31
2022-10-14T18:59:22.004Z,101359.61
2022-10-14T19:01:54.166Z,101360.59
2022-10-14T19:04:24.898Z,101352.22
2022-10-14T19:06:52.789Z,101357.39
2022-10-14T19:09:22.762Z,101359.19
2022-10-14T19:11:51.902Z,101355.75
2022-10-14T19:14:19.591Z,101359.94
2022-10-14T19:16:48.757Z,101358.37
2022-10-14T19:19:19.530Z,101345.75
2022-10-14T19:21:51.213Z,101349.93
2022-10-14T19:24:18.892Z,101338.62
2022-10-14T19:26:48.110Z,101342.25
2022-10-14T19:29:16.921Z,101339.08
2022-10-14T19:31:45.022Z,101346.66
2022-10-14T19:34:15.700Z,101342.15
2022-10-14T19:36:44.080Z,101342.64
2022-10-14T19:39:14.976Z,101336.82
2022-10-14T19:41:45.826Z,101345.16
2022-10-14T19:44:14.956Z,101343.30
2022-10-14T19:46:43.035Z,101347.68
2022-10-14T19:49:13.451Z,101333.23
2022-10-14T19:51:41.149Z,101339.50
2022-10-14T19:54:09.094Z,101339.99
2022-10-14T19:56:36.758Z,101343.66
2022-10-14T19:59:04.697Z,101340.52
2022-10-14T20:01:32.615Z,101343.06
2022-10-14T20:04:01.822Z,101339.93
2022-10-14T20:06:32.835Z,101334.66
2022-10-14T20:09:00.796Z,101338.06
2022-10-14T20:11:29.442Z,101335.94
2022-10-14T20:13:57.209Z,101338.06
2022-10-14T20:16:25.160Z,101331.49
2022-10-14T20:18:53.154Z,101330.18
2022-10-14T20:21:20.773Z,101325.73
2022-10-14T20:23:48.463Z,101328.32
2022-10-14T20:26:18.995Z,101332.02
2022-10-14T20:28:47.430Z,101332.50
2022-10-14T20:31:18.580Z,101328.84
2022-10-14T20:33:46.604Z,101335.88
2022-10-14T20:36:17.056Z,101326.20
2022-10-14T20:38:45.522Z,101317.04
2022-10-14T20:41:16.242Z,101316.48
2022-10-14T20:43:45.635Z,101310.23
2022-10-14T20:46:14.060Z,101313.11
2022-10-14T20:48:42.314Z,101321.74
2022-10-14T20:51:12.723Z,101319.36
2022-10-14T20:56:15.114Z,101301.27
2022-10-14T20:58:43.313Z,101303.11
2022-10-14T21:01:18.498Z,101305.66
2022-10-14T21:03:48.656Z,101303.30
2022-10-14T21:06:19.830Z,101298.53
2022-10-14T21:08:48.681Z,101299.34
2022-10-14T21:11:18.711Z,101303.79
2022-10-14T21:13:54.757Z,101304.09
2022-10-14T21:16:27.560Z,101298.85
2022-10-14T21:19:01.049Z,101283.39
2022-10-14T21:21:30.873Z,101287.84
2022-10-14T21:24:00.128Z,101278.13
2022-10-14T21:26:28.397Z,101276.03
2022-10-14T21:28:56.156Z,101275.24
2022-10-14T21:31:24.000Z,101271.06
2022-10-14T21:34:05.020Z,101270.27
2022-10-14T21:36:35.060Z,101272.37
2022-10-14T21:39:09.763Z,101265.83
2022-10-14T21:41:38.436Z,101273.16
2022-10-14T21:44:07.590Z,101270.87
2022-10-14T21:46:36.279Z,101255.69
2022-10-14T21:49:04.040Z,101246.24
2022-10-14T21:51:32.329Z,101250.20
2022-10-14T21:54:00.079Z,101257.26
2022-10-14T21:56:28.347Z,101245.75
2022-10-14T21:58:56.644Z,101244.97
2022-10-14T22:01:29.961Z,101245.49
2022-10-14T22:03:59.195Z,101238.91
2022-10-14T22:06:28.181Z,101242.80
2022-10-14T22:08:57.993Z,101232.28
2022-10-14T22:11:30.543Z,101225.77
2022-10-14T22:14:01.911Z,101220.02
2022-10-14T22:16:30.659Z,101222.37
2022-10-14T22:19:03.510Z,101217.14
2022-10-14T22:21:33.298Z,101215.83
2022-10-14T22:24:01.834Z,101202.75
2022-10-14T22:26:31.083Z,101196.70
2022-10-14T22:29:01.653Z,101206.12
2022-10-14T22:31:30.789Z,101206.64
2022-10-14T22:33:59.774Z,101210.30
2022-10-14T22:36:29.602Z,101214.75
2022-10-14T22:38:58.810Z,101210.80
2022-10-14T22:41:30.979Z,101207.36
2022-10-14T22:44:01.785Z,101210.50
2022-10-14T22:46:32.047Z,101201.87
2022-10-14T22:49:01.994Z,101203.17
2022-10-14T22:51:35.470Z,101206.87
2022-10-14T22:54:03.928Z,101198.23
2022-10-14T22:56:32.598Z,101207.13
2022-10-14T22:59:02.953Z,101203.17
2022-10-14T23:01:30.689Z,101192.48
2022-10-14T23:04:00.129Z,101196.63
2022-10-14T23:06:28.633Z,101193.23
2022-10-14T23:08:56.828Z,101185.91
2022-10-14T23:11:26.007Z,101175.41
2022-10-14T23:13:54.058Z,101175.41
2022-10-14T23:16:25.185Z,101177.77
2022-10-14T23:18:53.999Z,101178.59
2022-10-14T23:21:24.595Z,101177.27
2022-10-14T23:23:53.953Z,101177.57
2022-10-14T23:26:24.369Z,101179.14
2022-10-14T23:28:56.977Z,101182.02
2022-10-14T23:31:28.220Z,101177.08
2022-10-14T23:33:59.379Z,101174.98
2022-10-14T23:36:27.764Z,101172.11
2022-10-14T23:38:55.425Z,101170.84
2022-10-14T23:41:24.206Z,101167.14
2022-10-14T23:43:53.012Z,101170.31
2022-10-14T23:46:21.828Z,101177.34
2022-10-14T23:49:00.794Z,101170.31
2022-10-14T23:51:37.826Z,101180.52
2022-10-14T23:54:05.832Z,101170.57
2022-10-14T23:56:33.588Z,101169.79
2022-10-14T23:59:01.201Z,101178.42
